sensor_id;sensor_type;location;lat;lon;timestamp;P1;durP1;ratioP1;P2;durP2;ratioP2
11681;SDS011;5897;42.640;23.310;2023-12-04T00:02:16;3.90;;;3.20;;
11681;SDS011;5897;42.640;23.310;2023-12-04T00:04:47;4.37;;;3.53;;
11681;SDS011;5897;42.640;23.310;2023-12-04T00:07:27;3.47;;;3.17;;
11681;SDS011;5897;42.640;23.310;2023-12-04T00:09:56;4.10;;;3.37;;
11681;SDS011;5897;42.640;23.310;2023-12-04T00:12:25;4.47;;;4.07;;
11681;SDS011;5897;42.640;23.310;2023-12-04T00:14:54;5.67;;;4.30;;
11681;SDS011;5897;42.640;23.310;2023-12-04T00:17:21;6.00;;;4.37;;
11681;SDS011;5897;42.640;23.310;2023-12-04T00:19:47;5.33;;;4.50;;
11681;SDS011;5897;42.640;23.310;2023-12-04T00:22:14;5.30;;;4.17;;
11681;SDS011;5897;42.640;23.310;2023-12-04T00:24:41;4.87;;;4.23;;
11681;SDS011;5897;42.640;23.310;2023-12-04T00:27:17;4.50;;;3.87;;
11681;SDS011;5897;42.640;23.310;2023-12-04T00:29:46;4.50;;;3.80;;
11681;SDS011;5897;42.640;23.310;2023-12-04T00:32:17;5.17;;;4.27;;
11681;SDS011;5897;42.640;23.310;2023-12-04T00:35:01;3.50;;;3.20;;
11681;SDS011;5897;42.640;23.310;2023-12-04T00:37:28;4.70;;;3.90;;
11681;SDS011;5897;42.640;23.310;2023-12-04T00:40:03;4.53;;;3.60;;
11681;SDS011;5897;42.640;23.310;2023-12-04T00:42:33;3.70;;;3.10;;
11681;SDS011;5897;42.640;23.310;2023-12-04T00:45:01;4.07;;;3.63;;
11681;SDS011;5897;42.640;23.310;2023-12-04T00:47:32;5.17;;;3.60;;
11681;SDS011;5897;42.640;23.310;2023-12-04T00:50:01;4.63;;;4.23;;
11681;SDS011;5897;42.640;23.310;2023-12-04T00:52:29;4.03;;;3.63;;
11681;SDS011;5897;42.640;23.310;2023-12-04T00:55:07;4.63;;;3.60;;
11681;SDS011;5897;42.640;23.310;2023-12-04T00:57:45;6.10;;;3.90;;
11681;SDS011;5897;42.640;23.310;2023-12-04T01:00:12;4.77;;;3.97;;
11681;SDS011;5897;42.640;23.310;2023-12-04T01:02:48;5.33;;;4.20;;
11681;SDS011;5897;42.640;23.310;2023-12-04T01:05:17;4.13;;;3.70;;
11681;SDS011;5897;42.640;23.310;2023-12-04T01:07:45;4.30;;;3.90;;
11681;SDS011;5897;42.640;23.310;2023-12-04T01:10:17;4.93;;;4.27;;
11681;SDS011;5897;42.640;23.310;2023-12-04T01:12:45;5.57;;;4.70;;
11681;SDS011;5897;42.640;23.310;2023-12-04T01:15:14;6.40;;;4.67;;
11681;SDS011;5897;42.640;23.310;2023-12-04T01:17:47;6.43;;;4.90;;
11681;SDS011;5897;42.640;23.310;2023-12-04T01:20:15;5.57;;;4.67;;
11681;SDS011;5897;42.640;23.310;2023-12-04T01:22:41;6.00;;;5.33;;
11681;SDS011;5897;42.640;23.310;2023-12-04T01:25:11;5.60;;;5.00;;
11681;SDS011;5897;42.640;23.310;2023-12-04T01:27:40;5.83;;;4.87;;
11681;SDS011;5897;42.640;23.310;2023-12-04T01:30:17;6.07;;;4.40;;
11681;SDS011;5897;42.640;23.310;2023-12-04T01:32:43;6.40;;;4.77;;
11681;SDS011;5897;42.640;23.310;2023-12-04T01:35:22;4.80;;;4.30;;
11681;SDS011;5897;42.640;23.310;2023-12-04T01:37:50;5.03;;;4.53;;
11681;SDS011;5897;42.640;23.310;2023-12-04T01:40:22;6.10;;;5.00;;
11681;SDS011;5897;42.640;23.310;2023-12-04T01:42:54;6.53;;;4.80;;
11681;SDS011;5897;42.640;23.310;2023-12-04T01:45:23;6.20;;;5.20;;
11681;SDS011;5897;42.640;23.310;2023-12-04T01:47:54;5.93;;;5.33;;
11681;SDS011;5897;42.640;23.310;2023-12-04T01:50:23;6.60;;;5.23;;
11681;SDS011;5897;42.640;23.310;2023-12-04T01:52:53;6.93;;;5.70;;
11681;SDS011;5897;42.640;23.310;2023-12-04T01:55:22;6.23;;;5.63;;
11681;SDS011;5897;42.640;23.310;2023-12-04T01:57:56;6.17;;;5.40;;
11681;SDS011;5897;42.640;23.310;2023-12-04T02:00:27;5.60;;;5.00;;
11681;SDS011;5897;42.640;23.310;2023-12-04T02:02:59;6.67;;;5.20;;
11681;SDS011;5897;42.640;23.310;2023-12-04T02:05:30;6.57;;;5.80;;
11681;SDS011;5897;42.640;23.310;2023-12-04T02:08:07;5.87;;;5.27;;
11681;SDS011;5897;42.640;23.310;2023-12-04T02:10:47;4.97;;;4.40;;
11681;SDS011;5897;42.640;23.310;2023-12-04T02:13:21;5.90;;;4.90;;
11681;SDS011;5897;42.640;23.310;2023-12-04T02:15:48;5.47;;;4.90;;
11681;SDS011;5897;42.640;23.310;2023-12-04T02:18:19;5.50;;;4.87;;
11681;SDS011;5897;42.640;23.310;2023-12-04T02:20:55;5.60;;;4.77;;
11681;SDS011;5897;42.640;23.310;2023-12-04T02:23:24;5.07;;;4.57;;
11681;SDS011;5897;42.640;23.310;2023-12-04T02:26:03;5.83;;;4.87;;
11681;SDS011;5897;42.640;23.310;2023-12-04T02:28:40;6.60;;;5.57;;
11681;SDS011;5897;42.640;23.310;2023-12-04T02:31:17;6.20;;;5.07;;
11681;SDS011;5897;42.640;23.310;2023-12-04T02:33:51;5.90;;;5.30;;
11681;SDS011;5897;42.640;23.310;2023-12-04T02:36:25;6.10;;;4.77;;
11681;SDS011;5897;42.640;23.310;2023-12-04T02:39:03;4.70;;;4.20;;
11681;SDS011;5897;42.640;23.310;2023-12-04T02:41:38;4.90;;;4.40;;
11681;SDS011;5897;42.640;23.310;2023-12-04T02:44:05;5.30;;;4.20;;
11681;SDS011;5897;42.640;23.310;2023-12-04T02:46:37;4.37;;;3.90;;
11681;SDS011;5897;42.640;23.310;2023-12-04T02:49:04;4.70;;;4.00;;
11681;SDS011;5897;42.640;23.310;2023-12-04T02:51:34;4.50;;;3.90;;
11681;SDS011;5897;42.640;23.310;2023-12-04T02:54:01;4.70;;;3.70;;
11681;SDS011;5897;42.640;23.310;2023-12-04T02:56:32;4.63;;;3.87;;
11681;SDS011;5897;42.640;23.310;2023-12-04T02:59:09;4.97;;;4.13;;
11681;SDS011;5897;42.640;23.310;2023-12-04T03:01:38;6.40;;;4.40;;
11681;SDS011;5897;42.640;23.310;2023-12-04T03:04:07;5.23;;;4.43;;
11681;SDS011;5897;42.640;23.310;2023-12-04T03:06:33;5.57;;;4.37;;
11681;SDS011;5897;42.640;23.310;2023-12-04T03:09:06;3.93;;;3.53;;
11681;SDS011;5897;42.640;23.310;2023-12-04T03:11:33;5.20;;;3.80;;
11681;SDS011;5897;42.640;23.310;2023-12-04T03:14:01;4.93;;;4.43;;
11681;SDS011;5897;42.640;23.310;2023-12-04T03:16:30;5.80;;;4.20;;
11681;SDS011;5897;42.640;23.310;2023-12-04T03:19:10;4.20;;;3.80;;
11681;SDS011;5897;42.640;23.310;2023-12-04T03:21:40;4.60;;;4.03;;
11681;SDS011;5897;42.640;23.310;2023-12-04T03:24:06;4.87;;;4.10;;
11681;SDS011;5897;42.640;23.310;2023-12-04T03:26:48;5.27;;;4.33;;
11681;SDS011;5897;42.640;23.310;2023-12-04T03:29:22;5.87;;;4.00;;
11681;SDS011;5897;42.640;23.310;2023-12-04T03:31:51;4.90;;;4.30;;
11681;SDS011;5897;42.640;23.310;2023-12-04T03:34:20;4.47;;;3.87;;
11681;SDS011;5897;42.640;23.310;2023-12-04T03:36:47;4.70;;;4.20;;
11681;SDS011;5897;42.640;23.310;2023-12-04T03:39:18;5.03;;;4.37;;
11681;SDS011;5897;42.640;23.310;2023-12-04T03:41:47;5.00;;;4.30;;
11681;SDS011;5897;42.640;23.310;2023-12-04T03:44:15;5.90;;;5.07;;
11681;SDS011;5897;42.640;23.310;2023-12-04T03:46:54;5.10;;;4.60;;
11681;SDS011;5897;42.640;23.310;2023-12-04T03:49:22;7.03;;;4.70;;
11681;SDS011;5897;42.640;23.310;2023-12-04T03:51:51;6.17;;;4.83;;
11681;SDS011;5897;42.640;23.310;2023-12-04T03:54:20;5.40;;;4.70;;
11681;SDS011;5897;42.640;23.310;2023-12-04T03:56:49;5.90;;;5.30;;
11681;SDS011;5897;42.640;23.310;2023-12-04T03:59:25;8.40;;;4.77;;
11681;SDS011;5897;42.640;23.310;2023-12-04T04:01:57;5.80;;;5.20;;
11681;SDS011;5897;42.640;23.310;2023-12-04T04:04:25;6.23;;;4.87;;
11681;SDS011;5897;42.640;23.310;2023-12-04T04:06:52;6.03;;;5.07;;
11681;SDS011;5897;42.640;23.310;2023-12-04T04:09:18;5.47;;;4.90;;
11681;SDS011;5897;42.640;23.310;2023-12-04T04:11:50;6.27;;;5.30;;
11681;SDS011;5897;42.640;23.310;2023-12-04T04:14:21;6.07;;;5.47;;
11681;SDS011;5897;42.640;23.310;2023-12-04T04:16:54;6.70;;;5.70;;
11681;SDS011;5897;42.640;23.310;2023-12-04T04:19:29;5.83;;;4.63;;
11681;SDS011;5897;42.640;23.310;2023-12-04T04:21:58;6.23;;;5.03;;
11681;SDS011;5897;42.640;23.310;2023-12-04T04:24:38;5.90;;;4.97;;
11681;SDS011;5897;42.640;23.310;2023-12-04T04:27:09;5.00;;;4.50;;
11681;SDS011;5897;42.640;23.310;2023-12-04T04:29:39;5.00;;;4.50;;
11681;SDS011;5897;42.640;23.310;2023-12-04T04:32:33;4.97;;;4.30;;
11681;SDS011;5897;42.640;23.310;2023-12-04T04:35:07;5.70;;;4.93;;
11681;SDS011;5897;42.640;23.310;2023-12-04T04:37:36;5.20;;;4.77;;
11681;SDS011;5897;42.640;23.310;2023-12-04T04:40:06;4.70;;;4.20;;
11681;SDS011;5897;42.640;23.310;2023-12-04T04:42:33;6.00;;;4.53;;
11681;SDS011;5897;42.640;23.310;2023-12-04T04:45:06;4.97;;;4.47;;
11681;SDS011;5897;42.640;23.310;2023-12-04T04:47:33;5.17;;;4.60;;
11681;SDS011;5897;42.640;23.310;2023-12-04T04:50:08;5.23;;;4.73;;
11681;SDS011;5897;42.640;23.310;2023-12-04T04:52:41;5.17;;;4.43;;
11681;SDS011;5897;42.640;23.310;2023-12-04T04:55:19;5.57;;;4.97;;
11681;SDS011;5897;42.640;23.310;2023-12-04T04:57:51;5.83;;;4.83;;
11681;SDS011;5897;42.640;23.310;2023-12-04T05:00:18;6.20;;;5.30;;
11681;SDS011;5897;42.640;23.310;2023-12-04T05:02:51;6.93;;;4.73;;
11681;SDS011;5897;42.640;23.310;2023-12-04T05:05:21;6.80;;;5.00;;
11681;SDS011;5897;42.640;23.310;2023-12-04T05:07:48;6.07;;;5.20;;
11681;SDS011;5897;42.640;23.310;2023-12-04T05:10:16;5.93;;;4.90;;
11681;SDS011;5897;42.640;23.310;2023-12-04T05:12:46;5.13;;;4.63;;
11681;SDS011;5897;42.640;23.310;2023-12-04T05:15:18;6.43;;;4.93;;
11681;SDS011;5897;42.640;23.310;2023-12-04T05:17:50;5.80;;;4.93;;
11681;SDS011;5897;42.640;23.310;2023-12-04T05:20:28;7.00;;;5.60;;
11681;SDS011;5897;42.640;23.310;2023-12-04T05:23:22;8.10;;;5.40;;
11681;SDS011;5897;42.640;23.310;2023-12-04T05:26:00;9.63;;;5.90;;
11681;SDS011;5897;42.640;23.310;2023-12-04T05:28:26;6.47;;;5.37;;
11681;SDS011;5897;42.640;23.310;2023-12-04T05:31:00;6.03;;;4.67;;
11681;SDS011;5897;42.640;23.310;2023-12-04T05:33:30;5.97;;;5.07;;
11681;SDS011;5897;42.640;23.310;2023-12-04T05:36:01;6.57;;;5.13;;
11681;SDS011;5897;42.640;23.310;2023-12-04T05:38:30;8.40;;;5.10;;
11681;SDS011;5897;42.640;23.310;2023-12-04T05:41:22;5.77;;;4.87;;
11681;SDS011;5897;42.640;23.310;2023-12-04T05:43:54;5.10;;;4.60;;
11681;SDS011;5897;42.640;23.310;2023-12-04T05:46:26;5.47;;;4.93;;
11681;SDS011;5897;42.640;23.310;2023-12-04T05:48:57;8.70;;;5.20;;
11681;SDS011;5897;42.640;23.310;2023-12-04T05:51:31;6.80;;;4.80;;
11681;SDS011;5897;42.640;23.310;2023-12-04T05:53:57;6.63;;;4.60;;
11681;SDS011;5897;42.640;23.310;2023-12-04T05:56:34;7.60;;;5.20;;
11681;SDS011;5897;42.640;23.310;2023-12-04T05:59:06;9.33;;;5.93;;
11681;SDS011;5897;42.640;23.310;2023-12-04T06:01:32;8.47;;;5.70;;
11681;SDS011;5897;42.640;23.310;2023-12-04T06:04:03;9.17;;;6.50;;
11681;SDS011;5897;42.640;23.310;2023-12-04T06:06:31;8.67;;;6.20;;
11681;SDS011;5897;42.640;23.310;2023-12-04T06:09:00;9.97;;;7.57;;
11681;SDS011;5897;42.640;23.310;2023-12-04T06:11:32;9.47;;;6.40;;
11681;SDS011;5897;42.640;23.310;2023-12-04T06:14:04;9.00;;;6.83;;
11681;SDS011;5897;42.640;23.310;2023-12-04T06:16:32;8.70;;;7.57;;
11681;SDS011;5897;42.640;23.310;2023-12-04T06:18:59;8.07;;;7.10;;
11681;SDS011;5897;42.640;23.310;2023-12-04T06:21:36;8.90;;;7.37;;
11681;SDS011;5897;42.640;23.310;2023-12-04T06:24:05;8.87;;;6.93;;
11681;SDS011;5897;42.640;23.310;2023-12-04T06:26:42;10.73;;;7.50;;
11681;SDS011;5897;42.640;23.310;2023-12-04T06:29:12;10.60;;;8.53;;
11681;SDS011;5897;42.640;23.310;2023-12-04T06:31:51;8.47;;;6.90;;
11681;SDS011;5897;42.640;23.310;2023-12-04T06:34:20;8.90;;;6.90;;
11681;SDS011;5897;42.640;23.310;2023-12-04T06:36:51;12.50;;;7.13;;
11681;SDS011;5897;42.640;23.310;2023-12-04T06:39:25;10.67;;;7.63;;
11681;SDS011;5897;42.640;23.310;2023-12-04T06:42:00;11.23;;;7.17;;
11681;SDS011;5897;42.640;23.310;2023-12-04T06:44:27;7.00;;;4.90;;
11681;SDS011;5897;42.640;23.310;2023-12-04T06:47:06;5.53;;;4.77;;
11681;SDS011;5897;42.640;23.310;2023-12-04T06:49:46;6.77;;;5.60;;
11681;SDS011;5897;42.640;23.310;2023-12-04T06:52:30;6.43;;;5.47;;
11681;SDS011;5897;42.640;23.310;2023-12-04T06:54:56;7.53;;;5.23;;
11681;SDS011;5897;42.640;23.310;2023-12-04T06:57:27;10.07;;;5.90;;
11681;SDS011;5897;42.640;23.310;2023-12-04T06:59:56;7.67;;;6.10;;
11681;SDS011;5897;42.640;23.310;2023-12-04T07:02:52;7.43;;;5.90;;
11681;SDS011;5897;42.640;23.310;2023-12-04T07:05:24;6.80;;;5.10;;
11681;SDS011;5897;42.640;23.310;2023-12-04T07:08:06;5.73;;;5.00;;
11681;SDS011;5897;42.640;23.310;2023-12-04T07:10:39;6.33;;;5.50;;
11681;SDS011;5897;42.640;23.310;2023-12-04T07:13:06;5.80;;;5.07;;
11681;SDS011;5897;42.640;23.310;2023-12-04T07:15:32;5.77;;;4.47;;
11681;SDS011;5897;42.640;23.310;2023-12-04T07:17:59;5.50;;;4.67;;
11681;SDS011;5897;42.640;23.310;2023-12-04T07:20:26;5.67;;;4.47;;
11681;SDS011;5897;42.640;23.310;2023-12-04T07:23:25;5.53;;;4.70;;
11681;SDS011;5897;42.640;23.310;2023-12-04T07:25:52;7.43;;;5.53;;
11681;SDS011;5897;42.640;23.310;2023-12-04T07:28:18;5.97;;;4.97;;
11681;SDS011;5897;42.640;23.310;2023-12-04T07:30:45;7.00;;;5.43;;
11681;SDS011;5897;42.640;23.310;2023-12-04T07:33:12;8.90;;;6.20;;
11681;SDS011;5897;42.640;23.310;2023-12-04T07:35:46;8.13;;;5.80;;
11681;SDS011;5897;42.640;23.310;2023-12-04T07:38:19;6.27;;;5.53;;
11681;SDS011;5897;42.640;23.310;2023-12-04T07:40:49;6.07;;;4.97;;
11681;SDS011;5897;42.640;23.310;2023-12-04T07:43:16;6.17;;;4.60;;
11681;SDS011;5897;42.640;23.310;2023-12-04T07:45:48;6.53;;;5.20;;
11681;SDS011;5897;42.640;23.310;2023-12-04T07:48:24;6.13;;;5.37;;
11681;SDS011;5897;42.640;23.310;2023-12-04T07:51:02;5.80;;;4.90;;
11681;SDS011;5897;42.640;23.310;2023-12-04T07:53:36;7.50;;;5.40;;
11681;SDS011;5897;42.640;23.310;2023-12-04T07:56:07;5.63;;;4.63;;
11681;SDS011;5897;42.640;23.310;2023-12-04T07:58:35;5.70;;;4.50;;
11681;SDS011;5897;42.640;23.310;2023-12-04T08:01:05;5.20;;;4.70;;
11681;SDS011;5897;42.640;23.310;2023-12-04T08:03:37;5.83;;;4.90;;
11681;SDS011;5897;42.640;23.310;2023-12-04T08:06:03;6.30;;;4.80;;
11681;SDS011;5897;42.640;23.310;2023-12-04T08:08:30;7.97;;;5.40;;
11681;SDS011;5897;42.640;23.310;2023-12-04T08:11:15;10.00;;;5.37;;
11681;SDS011;5897;42.640;23.310;2023-12-04T08:13:47;6.97;;;5.77;;
11681;SDS011;5897;42.640;23.310;2023-12-04T08:16:16;8.10;;;6.17;;
11681;SDS011;5897;42.640;23.310;2023-12-04T08:18:49;5.40;;;4.83;;
11681;SDS011;5897;42.640;23.310;2023-12-04T08:21:19;5.83;;;4.77;;
11681;SDS011;5897;42.640;23.310;2023-12-04T08:23:46;5.13;;;4.20;;
11681;SDS011;5897;42.640;23.310;2023-12-04T08:26:14;4.53;;;4.00;;
11681;SDS011;5897;42.640;23.310;2023-12-04T08:28:48;4.90;;;4.40;;
11681;SDS011;5897;42.640;23.310;2023-12-04T08:31:15;5.03;;;4.57;;
11681;SDS011;5897;42.640;23.310;2023-12-04T08:33:42;4.80;;;4.30;;
11681;SDS011;5897;42.640;23.310;2023-12-04T08:36:10;7.10;;;4.70;;
11681;SDS011;5897;42.640;23.310;2023-12-04T08:38:37;5.70;;;5.20;;
11681;SDS011;5897;42.640;23.310;2023-12-04T08:41:06;6.07;;;5.40;;
11681;SDS011;5897;42.640;23.310;2023-12-04T08:43:37;4.87;;;3.70;;
11681;SDS011;5897;42.640;23.310;2023-12-04T08:46:03;4.03;;;3.63;;
11681;SDS011;5897;42.640;23.310;2023-12-04T08:48:30;16.93;;;4.60;;
11681;SDS011;5897;42.640;23.310;2023-12-04T08:50:59;4.35;;;3.95;;
11681;SDS011;5897;42.640;23.310;2023-12-04T08:53:26;5.57;;;4.40;;
11681;SDS011;5897;42.640;23.310;2023-12-04T08:55:55;5.50;;;3.53;;
11681;SDS011;5897;42.640;23.310;2023-12-04T08:58:22;3.35;;;3.05;;
11681;SDS011;5897;42.640;23.310;2023-12-04T09:00:50;3.47;;;3.17;;
11681;SDS011;5897;42.640;23.310;2023-12-04T09:03:43;4.13;;;3.50;;
11681;SDS011;5897;42.640;23.310;2023-12-04T09:06:19;4.47;;;3.90;;
11681;SDS011;5897;42.640;23.310;2023-12-04T09:08:48;5.95;;;4.00;;
11681;SDS011;5897;42.640;23.310;2023-12-04T09:11:14;4.93;;;3.92;;
11681;SDS011;5897;42.640;23.310;2023-12-04T09:13:41;4.30;;;3.63;;
11681;SDS011;5897;42.640;23.310;2023-12-04T09:16:09;4.28;;;3.88;;
11681;SDS011;5897;42.640;23.310;2023-12-04T09:18:36;3.72;;;3.40;;
11681;SDS011;5897;42.640;23.310;2023-12-04T09:21:03;4.07;;;3.47;;
11681;SDS011;5897;42.640;23.310;2023-12-04T09:23:33;4.57;;;3.10;;
11681;SDS011;5897;42.640;23.310;2023-12-04T09:26:00;4.57;;;3.13;;
11681;SDS011;5897;42.640;23.310;2023-12-04T09:28:30;4.10;;;3.58;;
11681;SDS011;5897;42.640;23.310;2023-12-04T09:30:57;5.47;;;3.72;;
11681;SDS011;5897;42.640;23.310;2023-12-04T09:33:25;3.63;;;3.10;;
11681;SDS011;5897;42.640;23.310;2023-12-04T09:35:51;5.05;;;3.28;;
11681;SDS011;5897;42.640;23.310;2023-12-04T09:38:18;7.10;;;3.70;;
11681;SDS011;5897;42.640;23.310;2023-12-04T09:40:52;4.78;;;3.63;;
11681;SDS011;5897;42.640;23.310;2023-12-04T09:43:19;4.93;;;4.03;;
11681;SDS011;5897;42.640;23.310;2023-12-04T09:46:07;5.32;;;3.45;;
11681;SDS011;5897;42.640;23.310;2023-12-04T09:48:37;5.65;;;3.63;;
11681;SDS011;5897;42.640;23.310;2023-12-04T09:51:05;5.88;;;3.50;;
11681;SDS011;5897;42.640;23.310;2023-12-04T09:53:35;5.07;;;3.58;;
11681;SDS011;5897;42.640;23.310;2023-12-04T09:56:02;4.72;;;3.85;;
11681;SDS011;5897;42.640;23.310;2023-12-04T09:58:30;6.00;;;4.30;;
11681;SDS011;5897;42.640;23.310;2023-12-04T10:00:58;4.07;;;3.67;;
11681;SDS011;5897;42.640;23.310;2023-12-04T10:03:28;4.22;;;3.42;;
11681;SDS011;5897;42.640;23.310;2023-12-04T10:05:59;6.28;;;4.10;;
11681;SDS011;5897;42.640;23.310;2023-12-04T10:08:43;5.25;;;3.88;;
11681;SDS011;5897;42.640;23.310;2023-12-04T10:11:09;5.28;;;3.90;;
11681;SDS011;5897;42.640;23.310;2023-12-04T10:13:36;5.20;;;3.58;;
11681;SDS011;5897;42.640;23.310;2023-12-04T10:16:03;7.03;;;3.88;;
11681;SDS011;5897;42.640;23.310;2023-12-04T10:18:30;4.35;;;3.95;;
11681;SDS011;5897;42.640;23.310;2023-12-04T10:20:57;5.30;;;3.95;;
11681;SDS011;5897;42.640;23.310;2023-12-04T10:23:35;5.15;;;3.90;;
11681;SDS011;5897;42.640;23.310;2023-12-04T10:26:09;5.18;;;3.75;;
11681;SDS011;5897;42.640;23.310;2023-12-04T10:28:58;6.57;;;4.30;;
11681;SDS011;5897;42.640;23.310;2023-12-04T10:31:25;6.03;;;4.20;;
11681;SDS011;5897;42.640;23.310;2023-12-04T10:33:55;5.43;;;3.63;;
11681;SDS011;5897;42.640;23.310;2023-12-04T10:36:23;6.07;;;3.83;;
11681;SDS011;5897;42.640;23.310;2023-12-04T10:38:57;4.50;;;3.70;;
11681;SDS011;5897;42.640;23.310;2023-12-04T10:41:30;5.10;;;4.03;;
11681;SDS011;5897;42.640;23.310;2023-12-04T10:44:00;4.13;;;3.72;;
11681;SDS011;5897;42.640;23.310;2023-12-04T10:46:29;6.85;;;4.00;;
11681;SDS011;5897;42.640;23.310;2023-12-04T10:48:59;4.97;;;4.22;;
11681;SDS011;5897;42.640;23.310;2023-12-04T10:51:43;4.15;;;3.75;;
11681;SDS011;5897;42.640;23.310;2023-12-04T10:54:10;5.18;;;4.03;;
11681;SDS011;5897;42.640;23.310;2023-12-04T10:56:38;7.22;;;4.47;;
11681;SDS011;5897;42.640;23.310;2023-12-04T10:59:15;5.03;;;4.28;;
11681;SDS011;5897;42.640;23.310;2023-12-04T11:01:57;6.85;;;4.45;;
11681;SDS011;5897;42.640;23.310;2023-12-04T11:04:29;5.90;;;4.40;;
11681;SDS011;5897;42.640;23.310;2023-12-04T11:07:06;4.53;;;4.13;;
11681;SDS011;5897;42.640;23.310;2023-12-04T11:09:39;5.15;;;4.18;;
11681;SDS011;5897;42.640;23.310;2023-12-04T11:12:20;5.40;;;4.18;;
11681;SDS011;5897;42.640;23.310;2023-12-04T11:14:56;6.05;;;4.40;;
11681;SDS011;5897;42.640;23.310;2023-12-04T11:17:25;4.93;;;4.20;;
11681;SDS011;5897;42.640;23.310;2023-12-04T11:20:02;4.85;;;4.05;;
11681;SDS011;5897;42.640;23.310;2023-12-04T11:22:35;6.80;;;4.13;;
11681;SDS011;5897;42.640;23.310;2023-12-04T11:25:06;4.40;;;4.00;;
11681;SDS011;5897;42.640;23.310;2023-12-04T11:27:34;4.88;;;4.40;;
11681;SDS011;5897;42.640;23.310;2023-12-04T11:30:02;4.75;;;4.20;;
11681;SDS011;5897;42.640;23.310;2023-12-04T11:32:31;6.18;;;4.25;;
11681;SDS011;5897;42.640;23.310;2023-12-04T11:34:59;6.43;;;4.57;;
11681;SDS011;5897;42.640;23.310;2023-12-04T11:37:27;5.40;;;4.38;;
11681;SDS011;5897;42.640;23.310;2023-12-04T11:40:08;4.97;;;4.30;;
11681;SDS011;5897;42.640;23.310;2023-12-04T11:42:38;5.68;;;4.30;;
11681;SDS011;5897;42.640;23.310;2023-12-04T11:45:05;4.93;;;4.28;;
11681;SDS011;5897;42.640;23.310;2023-12-04T11:47:57;5.30;;;4.50;;
11681;SDS011;5897;42.640;23.310;2023-12-04T11:50:31;4.97;;;4.47;;
11681;SDS011;5897;42.640;23.310;2023-12-04T11:53:01;6.13;;;4.63;;
11681;SDS011;5897;42.640;23.310;2023-12-04T11:55:30;5.32;;;4.25;;
11681;SDS011;5897;42.640;23.310;2023-12-04T11:58:04;6.43;;;4.50;;
11681;SDS011;5897;42.640;23.310;2023-12-04T12:00:38;6.47;;;4.95;;
11681;SDS011;5897;42.640;23.310;2023-12-04T12:03:08;7.75;;;5.30;;
11681;SDS011;5897;42.640;23.310;2023-12-04T12:05:35;4.60;;;4.20;;
11681;SDS011;5897;42.640;23.310;2023-12-04T12:08:04;5.18;;;4.68;;
11681;SDS011;5897;42.640;23.310;2023-12-04T12:10:33;6.05;;;4.60;;
11681;SDS011;5897;42.640;23.310;2023-12-04T12:13:00;8.60;;;4.82;;
11681;SDS011;5897;42.640;23.310;2023-12-04T12:15:31;8.23;;;7.40;;
11681;SDS011;5897;42.640;23.310;2023-12-04T12:17:58;13.25;;;12.10;;
11681;SDS011;5897;42.640;23.310;2023-12-04T12:20:27;7.95;;;4.70;;
11681;SDS011;5897;42.640;23.310;2023-12-04T12:22:57;9.38;;;5.50;;
11681;SDS011;5897;42.640;23.310;2023-12-04T12:25:26;5.72;;;4.53;;
11681;SDS011;5897;42.640;23.310;2023-12-04T12:27:54;6.13;;;5.53;;
11681;SDS011;5897;42.640;23.310;2023-12-04T12:30:28;7.82;;;5.40;;
11681;SDS011;5897;42.640;23.310;2023-12-04T12:32:55;5.28;;;4.78;;
11681;SDS011;5897;42.640;23.310;2023-12-04T12:35:22;6.18;;;5.25;;
11681;SDS011;5897;42.640;23.310;2023-12-04T12:38:04;5.95;;;5.18;;
11681;SDS011;5897;42.640;23.310;2023-12-04T12:40:46;5.65;;;4.93;;
11681;SDS011;5897;42.640;23.310;2023-12-04T12:43:19;5.80;;;4.80;;
11681;SDS011;5897;42.640;23.310;2023-12-04T12:45:48;6.70;;;5.38;;
11681;SDS011;5897;42.640;23.310;2023-12-04T12:48:28;7.28;;;5.35;;
11681;SDS011;5897;42.640;23.310;2023-12-04T12:50:58;9.90;;;5.32;;
11681;SDS011;5897;42.640;23.310;2023-12-04T12:53:25;6.00;;;4.97;;
11681;SDS011;5897;42.640;23.310;2023-12-04T12:55:56;6.00;;;4.90;;
11681;SDS011;5897;42.640;23.310;2023-12-04T12:58:36;6.20;;;4.97;;
11681;SDS011;5897;42.640;23.310;2023-12-04T13:01:06;6.05;;;5.35;;
11681;SDS011;5897;42.640;23.310;2023-12-04T13:03:45;6.72;;;5.28;;
11681;SDS011;5897;42.640;23.310;2023-12-04T13:06:17;8.18;;;5.90;;
11681;SDS011;5897;42.640;23.310;2023-12-04T13:08:44;10.52;;;6.28;;
11681;SDS011;5897;42.640;23.310;2023-12-04T13:11:17;9.63;;;6.90;;
11681;SDS011;5897;42.640;23.310;2023-12-04T13:13:47;12.10;;;7.70;;
11681;SDS011;5897;42.640;23.310;2023-12-04T13:16:14;15.50;;;10.90;;
11681;SDS011;5897;42.640;23.310;2023-12-04T13:18:46;15.70;;;11.32;;
11681;SDS011;5897;42.640;23.310;2023-12-04T13:21:13;20.55;;;15.07;;
11681;SDS011;5897;42.640;23.310;2023-12-04T13:23:39;15.65;;;12.25;;
11681;SDS011;5897;42.640;23.310;2023-12-04T13:26:06;17.05;;;12.73;;
11681;SDS011;5897;42.640;23.310;2023-12-04T13:28:35;18.95;;;13.80;;
11681;SDS011;5897;42.640;23.310;2023-12-04T13:31:04;16.65;;;12.30;;
11681;SDS011;5897;42.640;23.310;2023-12-04T13:33:34;11.90;;;9.60;;
11681;SDS011;5897;42.640;23.310;2023-12-04T13:36:00;13.75;;;9.93;;
11681;SDS011;5897;42.640;23.310;2023-12-04T13:38:29;12.38;;;8.80;;
11681;SDS011;5897;42.640;23.310;2023-12-04T13:40:56;10.57;;;8.20;;
11681;SDS011;5897;42.640;23.310;2023-12-04T13:43:33;9.13;;;8.23;;
11681;SDS011;5897;42.640;23.310;2023-12-04T13:46:18;12.38;;;7.95;;
11681;SDS011;5897;42.640;23.310;2023-12-04T13:48:45;11.13;;;8.20;;
11681;SDS011;5897;42.640;23.310;2023-12-04T13:51:14;12.30;;;9.48;;
11681;SDS011;5897;42.640;23.310;2023-12-04T13:53:43;16.55;;;10.68;;
11681;SDS011;5897;42.640;23.310;2023-12-04T13:56:39;18.83;;;13.95;;
11681;SDS011;5897;42.640;23.310;2023-12-04T13:59:16;16.98;;;14.32;;
11681;SDS011;5897;42.640;23.310;2023-12-04T14:01:46;19.08;;;14.65;;
11681;SDS011;5897;42.640;23.310;2023-12-04T14:04:28;15.57;;;11.80;;
11681;SDS011;5897;42.640;23.310;2023-12-04T14:06:55;14.45;;;10.25;;
11681;SDS011;5897;42.640;23.310;2023-12-04T14:09:24;17.00;;;12.13;;
11681;SDS011;5897;42.640;23.310;2023-12-04T14:11:51;19.63;;;13.48;;
11681;SDS011;5897;42.640;23.310;2023-12-04T14:14:17;23.10;;;14.50;;
11681;SDS011;5897;42.640;23.310;2023-12-04T14:16:45;24.52;;;16.83;;
11681;SDS011;5897;42.640;23.310;2023-12-04T14:19:29;20.27;;;14.23;;
11681;SDS011;5897;42.640;23.310;2023-12-04T14:22:00;20.55;;;13.23;;
11681;SDS011;5897;42.640;23.310;2023-12-04T14:24:43;19.90;;;13.88;;
11681;SDS011;5897;42.640;23.310;2023-12-04T14:27:10;26.17;;;16.38;;
11681;SDS011;5897;42.640;23.310;2023-12-04T14:32:38;26.00;;;15.25;;
11681;SDS011;5897;42.640;23.310;2023-12-04T14:35:16;21.63;;;15.30;;
11681;SDS011;5897;42.640;23.310;2023-12-04T14:37:42;27.15;;;16.83;;
11681;SDS011;5897;42.640;23.310;2023-12-04T14:40:20;23.88;;;15.30;;
11681;SDS011;5897;42.640;23.310;2023-12-04T14:42:51;24.02;;;16.67;;
11681;SDS011;5897;42.640;23.310;2023-12-04T14:45:17;27.02;;;16.35;;
11681;SDS011;5897;42.640;23.310;2023-12-04T14:47:45;25.80;;;16.55;;
11681;SDS011;5897;42.640;23.310;2023-12-04T14:50:17;23.00;;;17.38;;
11681;SDS011;5897;42.640;23.310;2023-12-04T14:52:43;21.97;;;16.57;;
11681;SDS011;5897;42.640;23.310;2023-12-04T14:55:14;22.45;;;15.63;;
11681;SDS011;5897;42.640;23.310;2023-12-04T14:58:22;29.45;;;18.25;;
11681;SDS011;5897;42.640;23.310;2023-12-04T15:01:06;19.73;;;14.57;;
11681;SDS011;5897;42.640;23.310;2023-12-04T15:03:52;22.47;;;16.13;;
11681;SDS011;5897;42.640;23.310;2023-12-04T15:07:00;26.65;;;16.73;;
11681;SDS011;5897;42.640;23.310;2023-12-04T15:09:46;28.67;;;17.98;;
11681;SDS011;5897;42.640;23.310;2023-12-04T15:12:31;25.60;;;18.00;;
11681;SDS011;5897;42.640;23.310;2023-12-04T15:15:24;26.35;;;17.52;;